createdAt,value
2022-12-09T00:01:05.747Z,16.67
2022-12-09T00:03:33.394Z,15.67
2022-12-09T00:06:01.412Z,14.37
2022-12-09T00:08:29.054Z,15.73
2022-12-09T00:10:56.738Z,17.73
2022-12-09T00:13:24.129Z,16.57
2022-12-09T00:15:52.977Z,18.43
2022-12-09T00:18:20.419Z,17.80
2022-12-09T00:20:47.992Z,22.83
2022-12-09T00:23:15.478Z,17.57
2022-12-09T00:25:42.920Z,38.13
2022-12-09T00:28:10.324Z,25.53
2022-12-09T00:30:37.799Z,21.90
2022-12-09T00:33:06.520Z,22.07
2022-12-09T00:35:33.975Z,21.20
2022-12-09T00:38:01.434Z,21.13
2022-12-09T00:40:28.915Z,19.23
2022-12-09T00:42:56.358Z,24.67
2022-12-09T00:45:24.077Z,29.37
2022-12-09T00:47:51.729Z,22.87
2022-12-09T00:50:20.611Z,28.60
2022-12-09T00:52:48.044Z,21.53
2022-12-09T00:55:15.623Z,25.50
2022-12-09T00:57:43.249Z,21.83
2022-12-09T01:00:12.318Z,23.30
2022-12-09T01:02:40.025Z,21.87
2022-12-09T01:05:08.089Z,21.77
2022-12-09T01:07:37.716Z,21.57
2022-12-09T01:10:06.397Z,20.77
2022-12-09T01:12:34.558Z,22.50
2022-12-09T01:15:02.158Z,19.77
2022-12-09T01:17:29.697Z,19.70
2022-12-09T01:19:57.666Z,21.27
2022-12-09T01:22:25.121Z,20.70
2022-12-09T01:24:54.019Z,21.10
2022-12-09T01:27:21.796Z,21.93
2022-12-09T01:29:49.468Z,20.43
2022-12-09T01:32:17.681Z,29.60
2022-12-09T01:34:45.644Z,25.70
2022-12-09T01:37:13.140Z,20.97
2022-12-09T01:39:40.621Z,23.33
2022-12-09T01:42:19.869Z,25.63
2022-12-09T01:45:37.611Z,27.23
2022-12-09T01:48:11.237Z,25.97
2022-12-09T01:50:40.909Z,21.93
2022-12-09T01:53:08.647Z,20.40
2022-12-09T01:55:36.460Z,22.80
2022-12-09T01:58:06.503Z,22.77
2022-12-09T02:00:34.146Z,24.90
2022-12-09T02:03:02.827Z,22.87
2022-12-09T02:05:31.712Z,21.03
2022-12-09T02:07:59.428Z,19.37
2022-12-09T02:10:28.588Z,21.80
2022-12-09T02:13:06.937Z,23.00
2022-12-09T02:15:43.078Z,23.37
2022-12-09T02:18:17.620Z,25.87
2022-12-09T02:20:55.473Z,24.43
2022-12-09T02:23:28.015Z,25.60
2022-12-09T02:25:58.615Z,23.60
2022-12-09T02:28:45.950Z,22.67
2022-12-09T02:31:25.157Z,23.10
2022-12-09T02:34:07.521Z,24.23
2022-12-09T02:36:42.517Z,24.70
2022-12-09T02:39:11.098Z,24.67
2022-12-09T02:41:43.049Z,24.50
2022-12-09T02:44:16.587Z,20.67
2022-12-09T02:46:45.809Z,22.97
2022-12-09T02:49:15.873Z,23.63
2022-12-09T02:51:45.797Z,25.83
2022-12-09T02:54:16.563Z,23.20
2022-12-09T02:56:51.054Z,23.53
2022-12-09T02:59:18.604Z,19.13
2022-12-09T03:01:50.987Z,22.00
2022-12-09T03:04:23.415Z,21.30
2022-12-09T03:06:53.736Z,23.00
2022-12-09T03:09:25.178Z,20.27
2022-12-09T03:11:53.984Z,21.10
2022-12-09T03:14:28.295Z,20.57
2022-12-09T03:17:00.307Z,20.10
2022-12-09T03:19:33.784Z,20.67
2022-12-09T03:22:04.145Z,19.17
2022-12-09T03:24:37.524Z,22.07
2022-12-09T03:27:09.905Z,19.03
2022-12-09T03:29:42.650Z,19.00
2022-12-09T03:32:12.649Z,21.67
2022-12-09T03:34:46.013Z,18.50
2022-12-09T03:37:18.930Z,17.27
2022-12-09T03:39:48.258Z,18.87
2022-12-09T03:42:20.113Z,22.07
2022-12-09T03:44:52.945Z,18.00
2022-12-09T03:47:20.631Z,19.73
2022-12-09T03:49:49.564Z,21.57
2022-12-09T03:52:21.782Z,22.10
2022-12-09T03:54:54.646Z,25.17
2022-12-09T03:57:23.448Z,18.63
2022-12-09T03:59:55.299Z,18.60
2022-12-09T04:02:23.637Z,22.20
2022-12-09T04:04:53.266Z,21.70
2022-12-09T04:07:20.955Z,20.60
2022-12-09T04:09:48.445Z,19.23
2022-12-09T04:12:15.896Z,21.53
2022-12-09T04:14:43.344Z,25.67
2022-12-09T04:17:12.197Z,20.90
2022-12-09T04:19:39.755Z,19.47
2022-12-09T04:22:08.547Z,18.43
2022-12-09T04:24:36.258Z,19.83
2022-12-09T04:27:03.781Z,20.07
2022-12-09T04:29:31.390Z,17.53
2022-12-09T04:31:59.027Z,20.07
2022-12-09T04:34:26.563Z,19.43
2022-12-09T04:36:54.238Z,16.13
2022-12-09T04:39:23.432Z,19.50
2022-12-09T04:41:50.970Z,22.70
2022-12-09T04:44:18.742Z,19.40
2022-12-09T04:46:46.261Z,22.67
2022-12-09T04:49:14.041Z,19.77
2022-12-09T04:51:42.238Z,21.80
2022-12-09T04:54:13.688Z,19.27
2022-12-09T04:56:43.136Z,21.37
2022-12-09T04:59:11.068Z,22.00
2022-12-09T05:01:38.725Z,23.83
2022-12-09T05:04:06.727Z,21.10
2022-12-09T05:06:35.317Z,21.60
2022-12-09T05:09:03.784Z,21.37
2022-12-09T05:11:32.185Z,23.10
2022-12-09T05:14:01.246Z,26.43
2022-12-09T05:16:28.932Z,25.83
2022-12-09T05:18:57.017Z,23.57
2022-12-09T05:21:24.820Z,23.87
2022-12-09T05:23:52.863Z,22.53
2022-12-09T05:26:23.077Z,23.83
2022-12-09T05:28:51.621Z,22.53
2022-12-09T05:31:23.757Z,19.23
2022-12-09T05:33:52.836Z,23.90
2022-12-09T05:36:24.291Z,22.77
2022-12-09T05:38:52.764Z,21.63
2022-12-09T05:41:21.019Z,24.53
2022-12-09T05:43:48.956Z,24.10
2022-12-09T05:46:16.915Z,23.83
2022-12-09T05:48:46.341Z,27.53
2022-12-09T05:51:17.947Z,25.43
2022-12-09T05:53:45.674Z,24.80
2022-12-09T05:56:16.272Z,23.47
2022-12-09T05:58:43.892Z,24.47
2022-12-09T06:01:11.944Z,27.07
2022-12-09T06:03:39.773Z,29.97
2022-12-09T06:06:10.488Z,26.37
2022-12-09T06:08:39.307Z,27.00
2022-12-09T06:11:12.221Z,26.67
2022-12-09T06:13:40.849Z,31.43
2022-12-09T06:16:09.938Z,24.07
2022-12-09T06:18:38.569Z,31.57
2022-12-09T06:21:07.516Z,29.17
2022-12-09T06:23:38.443Z,32.80
2022-12-09T06:26:06.476Z,33.23
2022-12-09T06:28:35.327Z,32.03
2022-12-09T06:31:02.978Z,34.33
2022-12-09T06:33:54.180Z,43.53
2022-12-09T06:36:18.555Z,38.90
2022-12-09T06:38:47.787Z,37.00
2022-12-09T06:41:17.067Z,39.57
2022-12-09T06:43:44.758Z,38.83
2022-12-09T06:46:13.843Z,38.87
2022-12-09T06:48:41.876Z,35.80
2022-12-09T06:51:09.716Z,40.47
2022-12-09T06:53:37.389Z,44.70
2022-12-09T06:56:12.075Z,37.77
2022-12-09T06:58:41.501Z,44.60
2022-12-09T07:01:13.858Z,40.90
2022-12-09T07:03:42.745Z,42.30
2022-12-09T07:06:21.076Z,46.90
2022-12-09T07:08:49.255Z,40.23
2022-12-09T07:11:18.472Z,39.53
2022-12-09T07:13:46.103Z,40.83
2022-12-09T07:16:14.098Z,37.00
2022-12-09T07:18:42.203Z,38.30
2022-12-09T07:21:11.288Z,34.93
2022-12-09T07:23:40.220Z,36.30
2022-12-09T07:26:08.346Z,33.03
2022-12-09T07:28:39.989Z,31.57
2022-12-09T07:31:07.789Z,38.23
2022-12-09T07:33:35.367Z,40.23
2022-12-09T07:36:03.819Z,40.90
2022-12-09T07:38:31.600Z,38.07
2022-12-09T07:41:05.717Z,34.10
2022-12-09T07:43:34.182Z,34.57
2022-12-09T07:46:06.783Z,40.93
2022-12-09T07:48:35.196Z,35.27
2022-12-09T07:51:03.563Z,41.17
2022-12-09T07:53:31.478Z,34.87
2022-12-09T07:56:03.407Z,33.00
2022-12-09T07:58:31.407Z,40.67
2022-12-09T08:00:59.102Z,35.90
2022-12-09T08:03:28.259Z,37.40
2022-12-09T08:05:56.036Z,36.23
2022-12-09T08:08:24.332Z,40.13
2022-12-09T08:10:52.431Z,38.17
2022-12-09T08:13:21.133Z,38.43
2022-12-09T08:15:48.907Z,38.60
2022-12-09T08:18:16.562Z,40.53
2022-12-09T08:20:45.572Z,40.53
2022-12-09T08:23:13.634Z,37.90
2022-12-09T08:25:41.142Z,39.87
2022-12-09T08:28:09.521Z,37.87
2022-12-09T08:30:37.786Z,41.30
2022-12-09T08:33:05.792Z,38.73
2022-12-09T08:35:33.318Z,39.57
2022-12-09T08:38:02.911Z,44.10
2022-12-09T08:40:31.006Z,39.53
2022-12-09T08:42:58.721Z,38.47
2022-12-09T08:45:26.831Z,39.23
2022-12-09T08:47:54.844Z,38.67
2022-12-09T08:50:22.674Z,37.93
2022-12-09T08:52:50.618Z,38.70
2022-12-09T08:55:19.648Z,35.53
2022-12-09T08:57:47.180Z,32.87
2022-12-09T09:00:16.053Z,33.97
2022-12-09T09:02:44.019Z,29.67
2022-12-09T09:05:12.463Z,30.97
2022-12-09T09:07:40.781Z,31.30
2022-12-09T09:10:10.067Z,34.53
2022-12-09T09:12:43.492Z,28.33
2022-12-09T09:15:12.883Z,31.17
2022-12-09T09:17:42.773Z,36.53
2022-12-09T09:20:13.584Z,35.83
2022-12-09T09:22:41.715Z,45.60
2022-12-09T09:25:10.752Z,29.90
2022-12-09T09:27:39.756Z,32.93
2022-12-09T09:30:09.563Z,41.97
2022-12-09T09:32:38.034Z,30.27
2022-12-09T09:35:06.409Z,37.97
2022-12-09T09:37:34.319Z,35.80
2022-12-09T09:40:01.792Z,33.57
2022-12-09T09:42:35.258Z,32.77
2022-12-09T09:45:12.730Z,32.87
2022-12-09T09:47:44.214Z,33.77
2022-12-09T09:50:26.345Z,32.70
2022-12-09T09:52:56.174Z,33.30
2022-12-09T09:55:31.109Z,29.37
2022-12-09T09:58:07.313Z,30.57
2022-12-09T10:00:47.034Z,32.83
2022-12-09T10:03:21.832Z,37.07
2022-12-09T10:05:54.072Z,32.00
2022-12-09T10:08:37.665Z,36.33
2022-12-09T10:11:15.924Z,36.77
2022-12-09T10:13:53.655Z,33.73
2022-12-09T10:16:25.962Z,34.00
2022-12-09T10:19:08.174Z,31.33
2022-12-09T10:21:42.822Z,33.97
2022-12-09T10:24:20.118Z,31.63
2022-12-09T10:26:57.864Z,34.80
2022-12-09T10:29:36.287Z,35.37
2022-12-09T10:32:05.874Z,31.30
2022-12-09T10:34:33.878Z,27.93
2022-12-09T10:37:01.780Z,26.70
2022-12-09T10:39:29.278Z,31.93
2022-12-09T10:42:16.856Z,28.63
2022-12-09T10:44:44.489Z,26.67
2022-12-09T10:47:26.391Z,30.60
2022-12-09T10:49:56.473Z,34.90
2022-12-09T10:52:27.061Z,26.87
2022-12-09T10:54:55.191Z,28.87
2022-12-09T10:57:25.879Z,31.37
2022-12-09T11:00:01.772Z,33.37
2022-12-09T11:02:33.913Z,32.07
2022-12-09T11:05:24.292Z,31.23
2022-12-09T11:07:54.285Z,31.63
2022-12-09T11:10:24.896Z,34.33
2022-12-09T11:12:55.387Z,34.53
2022-12-09T11:15:28.125Z,33.43
2022-12-09T11:18:00.708Z,33.07
2022-12-09T11:20:30.660Z,32.03
2022-12-09T11:23:05.368Z,33.60
2022-12-09T11:25:35.248Z,30.77
2022-12-09T11:28:06.068Z,33.10
2022-12-09T11:30:40.641Z,34.10
2022-12-09T11:33:26.625Z,35.50
2022-12-09T11:35:59.030Z,38.47
2022-12-09T11:38:36.920Z,35.80
2022-12-09T11:41:14.073Z,35.40
2022-12-09T11:43:45.113Z,36.33
2022-12-09T11:46:25.394Z,41.90
2022-12-09T11:48:59.989Z,35.87
2022-12-09T11:51:31.119Z,37.27
2022-12-09T11:54:04.212Z,31.13
2022-12-09T11:56:33.412Z,40.93
2022-12-09T11:59:04.163Z,40.97
2022-12-09T12:01:42.377Z,39.97
2022-12-09T12:04:14.184Z,42.47
2022-12-09T12:06:45.421Z,34.67
2022-12-09T12:09:17.959Z,42.70
2022-12-09T12:12:03.461Z,32.77
2022-12-09T12:14:31.616Z,32.33
2022-12-09T12:17:09.288Z,34.13
2022-12-09T12:19:40.510Z,34.43
2022-12-09T12:22:21.424Z,42.83
2022-12-09T12:25:17.482Z,35.83
2022-12-09T12:27:59.473Z,44.13
2022-12-09T12:30:35.998Z,45.33
2022-12-09T12:36:13.296Z,46.50
2022-12-09T12:38:55.687Z,46.63
2022-12-09T12:41:29.849Z,46.03
2022-12-09T12:44:25.371Z,48.13
2022-12-09T12:47:03.239Z,53.93
2022-12-09T12:49:43.420Z,57.20
2022-12-09T12:52:54.427Z,57.17
2022-12-09T12:55:26.848Z,49.93
2022-12-09T12:58:05.993Z,46.67
2022-12-09T13:00:41.990Z,49.57
2022-12-09T13:03:25.435Z,50.35
2022-12-09T13:05:56.172Z,51.17
2022-12-09T13:08:29.353Z,47.90
2022-12-09T13:10:59.116Z,46.40
2022-12-09T13:13:30.621Z,56.10
2022-12-09T13:16:03.585Z,50.67
2022-12-09T13:18:35.875Z,43.27
2022-12-09T13:21:05.434Z,40.57
2022-12-09T13:23:50.120Z,36.37
2022-12-09T13:26:27.925Z,33.43
2022-12-09T13:29:02.683Z,34.20
2022-12-09T13:31:31.922Z,37.47
2022-12-09T13:34:13.864Z,36.80
2022-12-09T13:36:45.624Z,40.73
2022-12-09T13:39:52.721Z,29.50
2022-12-09T13:43:01.332Z,32.17
2022-12-09T13:45:34.195Z,33.40
2022-12-09T13:48:09.553Z,33.43
2022-12-09T13:50:42.486Z,31.73
2022-12-09T13:53:26.138Z,31.77
2022-12-09T13:55:57.152Z,36.10
2022-12-09T13:58:41.522Z,28.63
2022-12-09T14:01:19.248Z,25.57
2022-12-09T14:03:53.720Z,23.40
2022-12-09T14:06:25.664Z,26.43
2022-12-09T14:08:56.327Z,23.20
2022-12-09T14:11:47.068Z,26.27
2022-12-09T14:14:51.355Z,23.17
2022-12-09T14:17:41.415Z,23.03
2022-12-09T14:20:21.138Z,26.50
2022-12-09T14:23:19.231Z,33.90
2022-12-09T14:26:09.171Z,27.87
2022-12-09T14:28:55.515Z,28.33
2022-12-09T14:31:57.805Z,28.90
2022-12-09T14:34:32.991Z,33.73
2022-12-09T14:37:15.948Z,33.87
2022-12-09T14:39:48.540Z,35.27
2022-12-09T14:42:27.753Z,36.23
2022-12-09T14:45:04.668Z,39.70
2022-12-09T14:47:35.101Z,39.07
2022-12-09T14:50:10.289Z,33.27
2022-12-09T14:52:37.966Z,37.47
2022-12-09T14:55:09.054Z,37.40
2022-12-09T14:57:41.512Z,31.30
2022-12-09T15:00:27.577Z,29.90
2022-12-09T15:03:30.763Z,31.00
2022-12-09T15:05:54.736Z,35.30
2022-12-09T15:08:33.555Z,32.43
2022-12-09T15:11:05.419Z,36.77
2022-12-09T15:13:34.502Z,35.13
2022-12-09T15:16:03.375Z,41.23
2022-12-09T15:18:31.526Z,37.63
2022-12-09T15:21:01.323Z,37.77
2022-12-09T15:23:32.676Z,41.80
2022-12-09T15:26:01.818Z,43.13
2022-12-09T15:28:30.944Z,37.07
2022-12-09T15:31:01.152Z,37.33
2022-12-09T15:33:33.076Z,39.67
2022-12-09T15:36:03.617Z,45.37
2022-12-09T15:38:40.954Z,43.53
2022-12-09T15:41:27.951Z,39.90
2022-12-09T15:43:58.471Z,34.20
2022-12-09T15:46:27.412Z,31.90
2022-12-09T15:48:58.606Z,34.30
2022-12-09T15:51:27.346Z,32.63
2022-12-09T15:53:58.142Z,36.13
2022-12-09T15:56:31.091Z,32.97
2022-12-09T15:59:02.285Z,30.20
2022-12-09T16:01:32.896Z,32.53
2022-12-09T16:04:03.512Z,34.50
2022-12-09T16:06:34.006Z,30.87
2022-12-09T16:09:02.613Z,35.10
2022-12-09T16:11:37.945Z,28.43
2022-12-09T16:14:06.015Z,38.30
2022-12-09T16:16:41.690Z,39.20
2022-12-09T16:22:06.331Z,37.23
2022-12-09T16:24:57.891Z,34.60
2022-12-09T16:27:25.484Z,33.93
2022-12-09T16:29:55.062Z,31.70
2022-12-09T16:32:28.215Z,30.00
2022-12-09T16:34:57.624Z,34.70
2022-12-09T16:37:31.256Z,34.53
2022-12-09T16:39:59.480Z,33.20
2022-12-09T16:42:33.259Z,30.83
2022-12-09T16:45:22.719Z,34.80
2022-12-09T16:47:53.948Z,34.53
2022-12-09T16:50:21.682Z,31.83
2022-12-09T16:52:50.592Z,35.73
2022-12-09T16:55:21.898Z,34.03
2022-12-09T16:57:49.775Z,35.10
2022-12-09T17:00:18.814Z,32.23
2022-12-09T17:02:49.419Z,32.87
2022-12-09T17:05:17.205Z,30.53
2022-12-09T17:07:44.925Z,32.97
2022-12-09T17:10:16.197Z,31.27
2022-12-09T17:12:43.920Z,31.40
2022-12-09T17:15:15.337Z,30.27
2022-12-09T17:17:48.293Z,32.50
2022-12-09T17:20:16.409Z,32.40
2022-12-09T17:22:44.307Z,32.30
2022-12-09T17:25:11.761Z,37.37
2022-12-09T17:27:41.858Z,32.53
2022-12-09T17:30:10.579Z,32.93
2022-12-09T17:32:38.440Z,32.83
2022-12-09T17:35:12.380Z,33.00
2022-12-09T17:37:40.397Z,34.10
2022-12-09T17:40:08.667Z,34.43
2022-12-09T17:42:36.669Z,32.83
2022-12-09T17:45:06.674Z,32.67
2022-12-09T17:47:34.568Z,30.30
2022-12-09T17:50:02.069Z,26.47
2022-12-09T17:52:29.580Z,28.20
2022-12-09T17:54:57.019Z,28.87
2022-12-09T17:57:24.431Z,27.40
2022-12-09T17:59:52.022Z,26.70
2022-12-09T18:02:20.846Z,27.07
2022-12-09T18:04:48.405Z,27.57
2022-12-09T18:07:15.879Z,23.90
2022-12-09T18:09:43.318Z,25.53
2022-12-09T18:12:10.792Z,22.67
2022-12-09T18:14:38.197Z,23.53
2022-12-09T18:17:05.738Z,25.30
2022-12-09T18:19:35.310Z,27.90
2022-12-09T18:22:03.218Z,24.40
2022-12-09T18:24:30.776Z,24.73
2022-12-09T18:26:58.869Z,25.47
2022-12-09T18:29:27.129Z,23.10
2022-12-09T18:31:56.672Z,22.47
2022-12-09T18:34:24.640Z,21.90
2022-12-09T18:36:53.603Z,23.63
2022-12-09T18:39:21.743Z,24.53
2022-12-09T18:41:49.237Z,24.87
2022-12-09T18:44:17.114Z,23.47
2022-12-09T18:46:46.333Z,25.47
2022-12-09T18:49:15.883Z,25.80
2022-12-09T18:51:45.509Z,23.20
2022-12-09T18:54:17.192Z,20.03
2022-12-09T18:56:45.317Z,19.60
2022-12-09T18:59:13.423Z,24.67
2022-12-09T19:01:43.213Z,22.97
2022-12-09T19:04:14.883Z,27.23
2022-12-09T19:06:44.674Z,27.17
2022-12-09T19:09:16.053Z,23.43
2022-12-09T19:11:44.959Z,26.60
2022-12-09T19:14:14.035Z,25.83
2022-12-09T19:16:42.965Z,29.73
2022-12-09T19:19:12.893Z,26.07
2022-12-09T19:21:40.786Z,23.70
2022-12-09T19:24:12.325Z,26.40
2022-12-09T19:26:42.649Z,25.80
2022-12-09T19:29:11.339Z,24.23
2022-12-09T19:31:40.815Z,22.77
2022-12-09T19:34:11.748Z,21.30
2022-12-09T19:36:39.495Z,22.93
2022-12-09T19:39:09.227Z,20.50
2022-12-09T19:41:37.661Z,25.60
2022-12-09T19:44:07.035Z,25.17
2022-12-09T19:46:34.832Z,24.23
2022-12-09T19:49:02.597Z,24.87
2022-12-09T19:51:30.174Z,23.33
2022-12-09T19:54:00.084Z,122.77
2022-12-09T19:56:27.819Z,25.50
2022-12-09T19:58:56.009Z,29.77
2022-12-09T20:01:26.911Z,24.57
2022-12-09T20:03:58.142Z,25.63
2022-12-09T20:06:26.354Z,21.33
2022-12-09T20:08:54.247Z,21.70
2022-12-09T20:11:23.827Z,25.57
2022-12-09T20:13:52.795Z,21.70
2022-12-09T20:16:22.406Z,19.87
2022-12-09T20:18:52.444Z,22.07
2022-12-09T20:21:21.453Z,18.57
2022-12-09T20:23:49.816Z,26.47
2022-12-09T20:26:21.051Z,22.40
2022-12-09T20:28:50.327Z,25.33
2022-12-09T20:31:21.023Z,19.17
2022-12-09T20:33:49.248Z,24.83
2022-12-09T20:36:20.949Z,23.63
2022-12-09T20:38:50.352Z,22.77
2022-12-09T20:41:17.876Z,21.07
2022-12-09T20:43:49.327Z,21.37
2022-12-09T20:46:18.479Z,22.43
2022-12-09T20:48:47.322Z,21.77
2022-12-09T20:51:17.342Z,35.60
2022-12-09T20:53:48.039Z,21.60
2022-12-09T20:56:16.692Z,25.83
2022-12-09T20:58:45.641Z,23.13
2022-12-09T21:01:15.104Z,22.97
2022-12-09T21:03:43.791Z,26.87
2022-12-09T21:06:12.372Z,23.33
2022-12-09T21:08:40.323Z,23.10
2022-12-09T21:11:11.038Z,20.63
2022-12-09T21:13:40.176Z,24.67
2022-12-09T21:16:09.850Z,21.40
2022-12-09T21:18:37.646Z,24.13
2022-12-09T21:21:06.424Z,22.00
2022-12-09T21:23:36.281Z,22.07
2022-12-09T21:26:06.136Z,19.57
2022-12-09T21:28:35.491Z,19.17
2022-12-09T21:31:08.497Z,24.13
2022-12-09T21:33:36.798Z,21.53
2022-12-09T21:36:06.682Z,19.97
2022-12-09T21:38:34.784Z,20.60
2022-12-09T21:41:04.679Z,19.33
2022-12-09T21:43:36.068Z,23.10
2022-12-09T21:46:04.025Z,20.93
2022-12-09T21:48:31.966Z,20.43
2022-12-09T21:51:01.274Z,22.33
2022-12-09T21:53:29.844Z,21.57
2022-12-09T21:56:02.721Z,25.77
2022-12-09T21:58:31.731Z,21.83
2022-12-09T22:01:01.990Z,23.47
2022-12-09T22:03:29.540Z,19.33
2022-12-09T22:05:59.989Z,20.43
2022-12-09T22:08:28.094Z,29.20
2022-12-09T22:10:58.313Z,20.37
2022-12-09T22:13:28.119Z,23.03
2022-12-09T22:15:55.595Z,21.87
2022-12-09T22:18:24.542Z,20.53
2022-12-09T22:21:23.635Z,22.50
2022-12-09T22:23:40.029Z,21.17
2022-12-09T22:26:08.122Z,22.77
2022-12-09T22:28:36.380Z,23.17
2022-12-09T22:31:09.896Z,24.57
2022-12-09T22:33:39.102Z,23.57
2022-12-09T22:36:08.583Z,20.17
2022-12-09T22:38:38.011Z,20.40
2022-12-09T22:41:07.534Z,19.87
2022-12-09T22:43:38.218Z,22.00
2022-12-09T22:46:07.384Z,22.50
2022-12-09T22:48:36.049Z,22.60
2022-12-09T22:51:06.395Z,21.70
2022-12-09T22:53:34.159Z,19.77
2022-12-09T22:56:01.709Z,18.00
2022-12-09T22:58:29.133Z,21.57
2022-12-09T23:00:56.897Z,19.83
2022-12-09T23:03:24.819Z,19.07
2022-12-09T23:05:52.436Z,21.27
2022-12-09T23:08:22.398Z,21.73
2022-12-09T23:10:50.254Z,18.23
2022-12-09T23:13:18.085Z,17.97
2022-12-09T23:15:45.711Z,20.47
2022-12-09T23:18:13.240Z,21.27
2022-12-09T23:20:40.778Z,23.67
2022-12-09T23:23:08.180Z,18.30
2022-12-09T23:25:46.721Z,19.88
2022-12-09T23:28:14.124Z,24.07
2022-12-09T23:30:41.645Z,21.37
2022-12-09T23:33:09.083Z,22.60
2022-12-09T23:35:39.327Z,20.40
2022-12-09T23:38:06.760Z,20.80
2022-12-09T23:40:34.168Z,21.03
2022-12-09T23:43:02.928Z,18.80
2022-12-09T23:45:30.326Z,21.87
2022-12-09T23:47:57.740Z,18.97
2022-12-09T23:50:25.687Z,22.30
2022-12-09T23:52:53.091Z,21.80
2022-12-09T23:55:20.527Z,26.57
2022-12-09T23:57:50.123Z,24.97
